createdAt,value
2023-05-22T00:01:30.065Z,14.50
2023-05-22T00:03:57.002Z,14.50
2023-05-22T00:06:24.439Z,14.40
2023-05-22T00:08:51.106Z,14.40
2023-05-22T00:11:17.823Z,14.40
2023-05-22T00:13:44.393Z,14.40
2023-05-22T00:16:10.976Z,14.40
2023-05-22T00:18:37.587Z,14.40
2023-05-22T00:21:04.240Z,14.40
2023-05-22T00:23:30.807Z,14.50
2023-05-22T00:25:57.395Z,14.40
2023-05-22T00:28:23.951Z,14.50
2023-05-22T00:30:50.572Z,14.50
2023-05-22T00:33:17.161Z,14.40
2023-05-22T00:35:43.745Z,14.50
2023-05-22T00:38:26.711Z,14.50
2023-05-22T00:40:53.290Z,14.50
2023-05-22T00:43:20.050Z,14.50
2023-05-22T00:45:47.682Z,14.50
2023-05-22T00:48:15.483Z,14.50
2023-05-22T00:50:42.431Z,14.50
2023-05-22T00:53:09.361Z,14.50
2023-05-22T00:55:35.910Z,14.50
2023-05-22T00:58:07.501Z,14.50
2023-05-22T01:00:37.406Z,14.40
2023-05-22T01:03:05.569Z,14.50
2023-05-22T01:05:32.238Z,14.50
2023-05-22T01:07:58.862Z,14.50
2023-05-22T01:10:25.849Z,14.50
2023-05-22T01:12:57.218Z,14.50
2023-05-22T01:15:33.549Z,14.50
2023-05-22T01:18:19.572Z,14.50
2023-05-22T01:21:05.057Z,14.50
2023-05-22T01:23:54.086Z,14.40
2023-05-22T01:26:20.655Z,14.40
2023-05-22T01:28:56.305Z,14.30
2023-05-22T01:31:27.127Z,14.30
2023-05-22T01:33:58.733Z,14.20
2023-05-22T01:36:28.168Z,14.20
2023-05-22T01:38:55.567Z,14.10
2023-05-22T01:41:22.338Z,14.10
2023-05-22T01:43:48.961Z,14.00
2023-05-22T01:46:15.622Z,14.00
2023-05-22T01:48:42.222Z,14.00
2023-05-22T01:51:25.650Z,14.00
2023-05-22T01:53:57.394Z,14.00
2023-05-22T01:56:30.787Z,14.00
2023-05-22T01:59:09.335Z,14.00
2023-05-22T02:01:37.775Z,14.00
2023-05-22T02:04:05.170Z,14.10
2023-05-22T02:06:33.079Z,14.00
2023-05-22T02:09:01.086Z,14.00
2023-05-22T02:11:29.148Z,14.00
2023-05-22T02:13:56.422Z,14.00
2023-05-22T02:16:23.363Z,14.00
2023-05-22T02:18:51.284Z,14.00
2023-05-22T02:21:17.912Z,14.10
2023-05-22T02:23:44.522Z,14.10
2023-05-22T02:26:11.089Z,14.20
2023-05-22T02:28:37.934Z,14.10
2023-05-22T02:31:04.717Z,14.20
2023-05-22T02:33:31.326Z,14.20
2023-05-22T02:35:57.919Z,14.20
2023-05-22T02:38:24.607Z,14.20
2023-05-22T02:40:51.157Z,14.20
2023-05-22T02:43:17.730Z,14.20
2023-05-22T02:45:44.279Z,14.20
2023-05-22T02:48:11.264Z,14.20
2023-05-22T02:50:38.097Z,14.10
2023-05-22T02:53:04.934Z,14.10
2023-05-22T02:55:31.553Z,14.10
2023-05-22T02:57:58.121Z,14.20
2023-05-22T03:00:26.276Z,14.10
2023-05-22T03:02:53.124Z,14.10
2023-05-22T03:05:20.090Z,14.20
2023-05-22T03:07:48.846Z,14.20
2023-05-22T03:10:15.590Z,14.10
2023-05-22T03:12:42.193Z,14.10
2023-05-22T03:15:09.124Z,14.00
2023-05-22T03:17:35.700Z,14.00
2023-05-22T03:20:02.525Z,13.90
2023-05-22T03:22:29.104Z,13.90
2023-05-22T03:24:55.670Z,13.80
2023-05-22T03:27:22.220Z,13.90
2023-05-22T03:29:48.769Z,13.80
2023-05-22T03:32:15.356Z,13.80
2023-05-22T03:34:41.936Z,13.70
2023-05-22T03:37:09.061Z,13.70
2023-05-22T03:39:35.925Z,13.80
2023-05-22T03:42:02.506Z,13.80
2023-05-22T03:44:29.106Z,13.60
2023-05-22T03:46:55.827Z,13.70
2023-05-22T03:49:22.413Z,13.70
2023-05-22T03:51:49.002Z,13.70
2023-05-22T03:54:15.560Z,13.70
2023-05-22T03:56:42.765Z,13.70
2023-05-22T03:59:09.682Z,13.70
2023-05-22T04:01:39.274Z,13.80
2023-05-22T04:04:05.962Z,13.80
2023-05-22T04:06:33.089Z,13.90
2023-05-22T04:09:00.695Z,14.00
2023-05-22T04:11:30.377Z,14.00
2023-05-22T04:13:56.962Z,14.00
2023-05-22T04:16:23.723Z,14.00
2023-05-22T04:18:50.585Z,13.90
2023-05-22T04:21:17.479Z,13.90
2023-05-22T04:23:44.502Z,13.90
2023-05-22T04:26:11.091Z,13.80
2023-05-22T04:28:37.975Z,13.80
2023-05-22T04:31:06.557Z,13.80
2023-05-22T04:33:34.565Z,13.90
2023-05-22T04:36:02.317Z,13.80
2023-05-22T04:38:28.911Z,13.80
2023-05-22T04:40:55.490Z,13.80
2023-05-22T04:43:26.353Z,13.80
2023-05-22T04:45:54.074Z,13.90
2023-05-22T04:48:21.119Z,13.90
2023-05-22T04:50:48.299Z,14.00
2023-05-22T04:53:14.874Z,14.10
2023-05-22T04:55:41.708Z,14.20
2023-05-22T04:58:08.285Z,14.40
2023-05-22T05:00:35.497Z,14.50
2023-05-22T05:03:02.270Z,14.70
2023-05-22T05:05:28.910Z,14.80
2023-05-22T05:07:55.690Z,15.10
2023-05-22T05:10:22.259Z,15.30
2023-05-22T05:12:48.860Z,15.40
2023-05-22T05:15:15.471Z,15.50
2023-05-22T05:17:42.282Z,15.60
2023-05-22T05:20:09.173Z,15.80
2023-05-22T05:22:35.985Z,15.90
2023-05-22T05:25:03.976Z,16.00
2023-05-22T05:27:30.671Z,16.20
2023-05-22T05:29:57.241Z,16.30
2023-05-22T05:32:24.046Z,16.30
2023-05-22T05:34:51.469Z,16.40
2023-05-22T05:37:18.052Z,16.40
2023-05-22T05:39:44.640Z,16.50
2023-05-22T05:42:11.254Z,16.60
2023-05-22T05:44:38.171Z,16.60
2023-05-22T05:47:05.326Z,16.70
2023-05-22T05:49:33.071Z,16.80
2023-05-22T05:52:01.071Z,16.80
2023-05-22T05:54:27.658Z,16.90
2023-05-22T05:56:54.442Z,16.90
2023-05-22T05:59:21.015Z,17.00
2023-05-22T06:01:48.507Z,17.10
2023-05-22T06:04:15.042Z,17.20
2023-05-22T06:06:42.512Z,17.30
2023-05-22T06:09:10.013Z,17.40
2023-05-22T06:11:37.124Z,17.60
2023-05-22T06:14:04.072Z,17.70
2023-05-22T06:16:30.816Z,17.70
2023-05-22T06:18:58.719Z,17.70
2023-05-22T06:21:25.424Z,17.80
2023-05-22T06:23:52.232Z,17.80
2023-05-22T06:26:18.864Z,17.80
2023-05-22T06:28:45.615Z,17.80
2023-05-22T06:31:12.322Z,17.70
2023-05-22T06:33:40.721Z,17.70
2023-05-22T06:36:08.839Z,17.70
2023-05-22T06:38:37.882Z,17.80
2023-05-22T06:41:04.876Z,17.70
2023-05-22T06:43:31.695Z,17.80
2023-05-22T06:45:58.286Z,17.90
2023-05-22T06:48:24.931Z,17.90
2023-05-22T06:50:51.479Z,18.10
2023-05-22T06:53:18.057Z,18.10
2023-05-22T06:55:44.649Z,18.20
2023-05-22T06:58:11.255Z,18.30
2023-05-22T07:00:38.029Z,18.50
2023-05-22T07:03:06.777Z,18.60
2023-05-22T07:05:33.599Z,18.70
2023-05-22T07:08:00.239Z,18.90
2023-05-22T07:10:27.712Z,19.00
2023-05-22T07:12:54.633Z,19.10
2023-05-22T07:15:21.352Z,19.20
2023-05-22T07:17:48.631Z,19.20
2023-05-22T07:20:16.103Z,19.30
2023-05-22T07:22:42.827Z,19.30
2023-05-22T07:25:09.640Z,19.40
2023-05-22T07:27:36.178Z,19.50
2023-05-22T07:30:02.962Z,19.60
2023-05-22T07:32:29.627Z,19.80
2023-05-22T07:34:56.351Z,19.80
2023-05-22T07:37:23.197Z,19.90
2023-05-22T07:39:49.751Z,20.00
2023-05-22T07:42:16.316Z,20.00
2023-05-22T07:44:42.934Z,20.20
2023-05-22T07:47:09.590Z,20.20
2023-05-22T07:49:36.243Z,20.30
2023-05-22T07:52:03.017Z,20.40
2023-05-22T07:54:29.551Z,20.40
2023-05-22T07:56:56.307Z,20.50
2023-05-22T07:59:24.348Z,20.60
2023-05-22T08:01:50.960Z,20.50
2023-05-22T08:04:17.965Z,20.60
2023-05-22T08:06:44.799Z,20.70
2023-05-22T08:09:11.403Z,20.70
2023-05-22T08:11:40.129Z,20.80
2023-05-22T08:14:07.590Z,20.80
2023-05-22T08:16:34.444Z,20.90
2023-05-22T08:19:01.745Z,21.00
2023-05-22T08:21:28.514Z,21.00
2023-05-22T08:23:55.160Z,21.10
2023-05-22T08:26:21.717Z,21.10
2023-05-22T08:28:48.268Z,21.20
2023-05-22T08:31:14.931Z,21.30
2023-05-22T08:33:41.601Z,21.20
2023-05-22T08:36:08.275Z,21.40
2023-05-22T08:38:34.960Z,21.40
2023-05-22T08:41:01.658Z,21.50
2023-05-22T08:43:31.218Z,21.50
2023-05-22T08:46:02.638Z,21.50
2023-05-22T08:48:33.021Z,21.60
2023-05-22T08:51:03.149Z,21.60
2023-05-22T08:53:31.470Z,21.60
2023-05-22T08:55:58.275Z,21.60
2023-05-22T08:58:25.064Z,21.70
2023-05-22T09:00:52.673Z,21.70
2023-05-22T09:03:21.551Z,21.70
2023-05-22T09:05:49.391Z,21.70
2023-05-22T09:08:20.613Z,21.80
2023-05-22T09:10:47.805Z,21.90
2023-05-22T09:13:23.763Z,22.00
2023-05-22T09:15:50.296Z,21.90
2023-05-22T09:18:16.848Z,22.00
2023-05-22T09:20:43.556Z,22.00
2023-05-22T09:23:14.548Z,22.10
2023-05-22T09:25:42.104Z,22.30
2023-05-22T09:28:08.731Z,22.30
2023-05-22T09:30:36.482Z,22.30
2023-05-22T09:33:09.007Z,22.40
2023-05-22T09:35:37.149Z,22.50
2023-05-22T09:38:03.694Z,22.50
2023-05-22T09:40:31.827Z,22.50
2023-05-22T09:42:58.531Z,22.50
2023-05-22T09:45:27.347Z,22.40
2023-05-22T09:47:54.564Z,22.50
2023-05-22T09:50:21.221Z,22.60
2023-05-22T09:52:49.605Z,22.60
2023-05-22T09:55:16.338Z,22.60
2023-05-22T09:57:48.349Z,22.60
2023-05-22T10:00:18.403Z,22.70
2023-05-22T10:02:46.619Z,22.90
2023-05-22T10:05:21.269Z,22.90
2023-05-22T10:07:53.231Z,22.90
2023-05-22T10:10:25.583Z,22.90
2023-05-22T10:12:56.972Z,23.00
2023-05-22T10:15:23.885Z,23.10
2023-05-22T10:17:50.688Z,23.10
2023-05-22T10:20:17.391Z,23.20
2023-05-22T10:22:44.403Z,23.30
2023-05-22T10:25:11.704Z,23.30
2023-05-22T10:27:38.958Z,23.20
2023-05-22T10:30:10.572Z,23.40
2023-05-22T10:32:42.511Z,23.40
2023-05-22T10:35:09.330Z,23.50
2023-05-22T10:38:01.966Z,23.50
2023-05-22T10:40:30.447Z,23.50
2023-05-22T10:43:01.076Z,23.50
2023-05-22T10:45:28.974Z,23.50
2023-05-22T10:48:06.205Z,23.40
2023-05-22T10:50:33.566Z,23.50
2023-05-22T10:53:32.866Z,23.50
2023-05-22T10:56:02.886Z,23.40
2023-05-22T10:58:30.111Z,23.40
2023-05-22T11:01:10.815Z,23.50
2023-05-22T11:03:53.284Z,23.50
2023-05-22T11:06:39.392Z,23.40
2023-05-22T11:09:27.857Z,23.30
2023-05-22T11:12:12.743Z,23.20
2023-05-22T11:14:39.588Z,23.30
2023-05-22T11:17:06.464Z,23.20
2023-05-22T11:19:33.265Z,23.20
2023-05-22T11:22:03.742Z,23.10
2023-05-22T11:24:36.330Z,23.10
2023-05-22T11:27:05.679Z,23.10
2023-05-22T11:29:32.576Z,22.90
2023-05-22T11:31:59.402Z,23.00
2023-05-22T11:34:26.100Z,22.90
2023-05-22T11:36:53.065Z,23.00
2023-05-22T11:39:19.627Z,22.90
2023-05-22T11:41:46.229Z,22.90
2023-05-22T11:44:12.788Z,22.90
2023-05-22T11:46:39.907Z,23.00
2023-05-22T11:49:08.723Z,23.10
2023-05-22T11:51:35.317Z,23.10
2023-05-22T11:54:02.636Z,23.10
2023-05-22T11:56:29.268Z,23.20
2023-05-22T11:58:56.436Z,23.30
2023-05-22T12:01:22.999Z,23.30
2023-05-22T12:03:49.630Z,23.50
2023-05-22T12:06:17.526Z,23.60
2023-05-22T12:08:45.310Z,23.60
2023-05-22T12:11:12.180Z,23.70
2023-05-22T12:13:39.079Z,23.70
2023-05-22T12:16:17.728Z,23.90
2023-05-22T12:18:44.428Z,23.90
2023-05-22T12:21:11.126Z,23.90
2023-05-22T12:23:47.168Z,23.90
2023-05-22T12:26:13.729Z,23.90
2023-05-22T12:28:40.519Z,23.80
2023-05-22T12:33:57.380Z,23.60
2023-05-22T12:36:40.139Z,23.40
2023-05-22T12:39:07.961Z,23.40
2023-05-22T12:41:34.633Z,23.30
2023-05-22T12:44:03.355Z,23.30
2023-05-22T12:46:33.615Z,23.20
2023-05-22T12:49:00.586Z,23.20
2023-05-22T12:51:29.743Z,23.10
2023-05-22T12:53:59.587Z,23.20
2023-05-22T12:56:26.459Z,23.10
2023-05-22T12:58:53.099Z,23.20
2023-05-22T13:01:19.733Z,23.20
2023-05-22T13:03:46.542Z,23.20
2023-05-22T13:06:13.272Z,23.10
2023-05-22T13:11:31.196Z,23.20
2023-05-22T13:13:57.822Z,23.20
2023-05-22T13:19:15.070Z,23.10
2023-05-22T13:21:42.409Z,23.20
2023-05-22T13:24:09.006Z,23.20
2023-05-22T13:26:35.569Z,23.20
2023-05-22T13:29:02.141Z,23.20
2023-05-22T13:31:29.093Z,23.40
2023-05-22T13:33:55.850Z,23.50
2023-05-22T13:36:22.813Z,23.50
2023-05-22T13:38:49.533Z,23.50
2023-05-22T13:41:17.628Z,23.50
2023-05-22T13:43:44.529Z,23.60
2023-05-22T13:46:12.159Z,23.80
2023-05-22T13:48:38.768Z,23.90
2023-05-22T13:51:05.337Z,23.90
2023-05-22T13:53:31.935Z,24.00
2023-05-22T13:55:58.613Z,23.90
2023-05-22T13:58:25.665Z,23.90
2023-05-22T14:00:52.267Z,24.00
2023-05-22T14:03:18.924Z,23.90
2023-05-22T14:05:45.568Z,23.90
2023-05-22T14:08:12.623Z,23.80
2023-05-22T14:10:39.587Z,23.70
2023-05-22T14:13:06.455Z,23.60
2023-05-22T14:15:33.048Z,23.60
2023-05-22T14:17:59.677Z,23.50
2023-05-22T14:20:26.366Z,23.50
2023-05-22T14:22:57.625Z,23.50
2023-05-22T14:25:27.972Z,23.40
2023-05-22T14:27:54.602Z,23.30
2023-05-22T14:30:21.252Z,23.30
2023-05-22T14:32:48.696Z,23.30
2023-05-22T14:35:16.669Z,23.30
2023-05-22T14:37:43.609Z,23.40
2023-05-22T14:40:10.901Z,23.40
2023-05-22T14:42:37.708Z,23.40
2023-05-22T14:45:04.531Z,23.40
2023-05-22T14:47:31.104Z,23.50
2023-05-22T14:50:03.133Z,23.60
2023-05-22T14:52:41.206Z,23.70
2023-05-22T14:55:07.946Z,23.70
2023-05-22T14:57:34.791Z,23.70
2023-05-22T15:00:01.506Z,23.80
2023-05-22T15:02:28.077Z,23.90
2023-05-22T15:04:54.922Z,24.00
2023-05-22T15:07:24.339Z,24.00
2023-05-22T15:09:53.310Z,24.00
2023-05-22T15:12:20.809Z,24.00
2023-05-22T15:14:49.109Z,24.00
2023-05-22T15:17:15.664Z,24.00
2023-05-22T15:19:43.837Z,23.90
2023-05-22T15:22:19.646Z,24.10
2023-05-22T15:24:47.183Z,24.10
2023-05-22T15:27:13.775Z,24.20
2023-05-22T15:29:40.591Z,24.30
2023-05-22T15:32:07.298Z,24.30
2023-05-22T15:34:33.919Z,24.40
2023-05-22T15:37:00.492Z,24.40
2023-05-22T15:39:27.098Z,24.50
2023-05-22T15:42:05.331Z,24.50
2023-05-22T15:44:32.758Z,24.50
2023-05-22T15:46:59.422Z,24.50
2023-05-22T15:49:27.418Z,24.50
2023-05-22T15:51:55.234Z,24.40
2023-05-22T15:54:21.783Z,24.50
2023-05-22T15:56:48.381Z,24.40
2023-05-22T15:59:14.931Z,24.30
2023-05-22T16:01:41.717Z,24.10
2023-05-22T16:04:08.292Z,24.00
2023-05-22T16:06:35.015Z,24.00
2023-05-22T16:09:01.583Z,24.00
2023-05-22T16:11:28.192Z,23.90
2023-05-22T16:13:54.778Z,23.80
2023-05-22T16:16:21.423Z,23.70
2023-05-22T16:18:48.091Z,23.60
2023-05-22T16:21:14.711Z,23.70
2023-05-22T16:23:41.258Z,23.70
2023-05-22T16:26:07.835Z,23.70
2023-05-22T16:28:34.362Z,23.80
2023-05-22T16:31:01.597Z,23.80
2023-05-22T16:33:28.693Z,23.90
2023-05-22T16:35:55.410Z,23.90
2023-05-22T16:38:22.015Z,24.00
2023-05-22T16:40:48.554Z,24.10
2023-05-22T16:43:16.652Z,24.10
2023-05-22T16:45:47.373Z,24.10
2023-05-22T16:48:14.053Z,24.20
2023-05-22T16:50:42.385Z,24.20
2023-05-22T16:53:09.104Z,24.30
2023-05-22T16:55:35.901Z,24.30
2023-05-22T16:58:03.554Z,24.30
2023-05-22T17:00:30.269Z,24.40
2023-05-22T17:02:57.249Z,24.40
2023-05-22T17:05:24.750Z,24.50
2023-05-22T17:07:51.396Z,24.40
2023-05-22T17:10:17.987Z,24.40
2023-05-22T17:12:44.680Z,24.30
2023-05-22T17:15:11.618Z,24.20
2023-05-22T17:17:38.339Z,24.00
2023-05-22T17:20:08.306Z,23.90
2023-05-22T17:22:36.818Z,23.80
2023-05-22T17:25:03.599Z,23.70
2023-05-22T17:27:36.125Z,23.60
2023-05-22T17:30:04.445Z,23.50
2023-05-22T17:32:31.149Z,23.40
2023-05-22T17:34:57.757Z,23.20
2023-05-22T17:37:24.323Z,23.20
2023-05-22T17:39:51.627Z,23.00
2023-05-22T17:42:18.207Z,22.90
2023-05-22T17:44:44.986Z,22.80
2023-05-22T17:47:13.249Z,22.70
2023-05-22T17:49:39.810Z,22.60
2023-05-22T17:52:08.463Z,22.40
2023-05-22T17:54:35.608Z,22.30
2023-05-22T17:57:03.960Z,22.10
2023-05-22T17:59:31.992Z,22.10
2023-05-22T18:02:00.387Z,22.00
2023-05-22T18:04:27.056Z,21.80
2023-05-22T18:06:53.634Z,21.70
2023-05-22T18:09:20.250Z,21.60
2023-05-22T18:11:46.854Z,21.40
2023-05-22T18:14:13.597Z,21.30
2023-05-22T18:16:40.941Z,21.30
2023-05-22T18:19:07.620Z,21.10
2023-05-22T18:21:34.247Z,21.00
2023-05-22T18:24:00.872Z,20.90
2023-05-22T18:26:27.699Z,20.70
2023-05-22T18:28:54.277Z,20.60
2023-05-22T18:31:20.927Z,20.50
2023-05-22T18:33:51.015Z,20.30
2023-05-22T18:36:17.570Z,20.20
2023-05-22T18:38:44.188Z,20.10
2023-05-22T18:41:10.858Z,19.90
2023-05-22T18:43:37.426Z,19.80
2023-05-22T18:46:04.107Z,19.70
2023-05-22T18:48:31.010Z,19.70
2023-05-22T18:50:57.951Z,19.60
2023-05-22T18:53:27.245Z,19.50
2023-05-22T18:59:09.699Z,19.50
2023-05-22T19:01:36.308Z,19.40
2023-05-22T19:04:02.977Z,19.40
2023-05-22T19:06:30.426Z,19.40
2023-05-22T19:08:57.094Z,19.30
2023-05-22T19:11:23.761Z,19.30
2023-05-22T19:13:50.387Z,19.40
2023-05-22T19:16:17.138Z,19.50
2023-05-22T19:18:43.764Z,19.60
2023-05-22T19:21:10.544Z,19.60
2023-05-22T19:23:37.442Z,19.50
2023-05-22T19:26:04.186Z,19.50
2023-05-22T19:28:32.211Z,19.60
2023-05-22T19:31:00.029Z,19.60
2023-05-22T19:33:26.897Z,19.60
2023-05-22T19:35:53.521Z,19.60
2023-05-22T19:38:20.199Z,19.60
2023-05-22T19:40:46.770Z,19.50
2023-05-22T19:43:13.523Z,19.40
2023-05-22T19:45:40.198Z,19.30
2023-05-22T19:48:07.801Z,19.20
2023-05-22T19:50:35.433Z,19.10
2023-05-22T19:53:02.076Z,19.10
2023-05-22T19:55:28.669Z,19.10
2023-05-22T19:57:55.414Z,19.00
2023-05-22T20:00:22.616Z,19.00
2023-05-22T20:02:49.306Z,18.90
2023-05-22T20:05:16.145Z,18.90
2023-05-22T20:07:43.185Z,18.80
2023-05-22T20:10:10.443Z,18.70
2023-05-22T20:12:37.597Z,18.70
2023-05-22T20:15:04.497Z,18.60
2023-05-22T20:17:31.188Z,18.50
2023-05-22T20:19:58.783Z,18.40
2023-05-22T20:22:26.355Z,18.40
2023-05-22T20:24:53.284Z,18.20
2023-05-22T20:27:20.159Z,18.20
2023-05-22T20:29:49.844Z,18.20
2023-05-22T20:32:16.935Z,18.10
2023-05-22T20:34:45.204Z,18.00
2023-05-22T20:37:13.423Z,17.90
2023-05-22T20:39:41.695Z,17.80
2023-05-22T20:42:08.418Z,17.70
2023-05-22T20:44:35.021Z,17.50
2023-05-22T20:47:02.661Z,17.50
2023-05-22T20:49:29.929Z,17.40
2023-05-22T20:51:59.852Z,17.40
2023-05-22T20:54:26.496Z,17.40
2023-05-22T20:56:54.727Z,17.40
2023-05-22T20:59:22.059Z,17.40
2023-05-22T21:01:48.629Z,17.40
2023-05-22T21:04:15.287Z,17.40
2023-05-22T21:06:42.004Z,17.40
2023-05-22T21:09:08.588Z,17.30
2023-05-22T21:11:35.190Z,17.30
2023-05-22T21:14:01.814Z,17.40
2023-05-22T21:16:28.451Z,17.30
2023-05-22T21:18:55.118Z,17.30
2023-05-22T21:21:21.758Z,17.30
2023-05-22T21:23:49.057Z,17.30
2023-05-22T21:26:15.808Z,17.20
2023-05-22T21:28:42.782Z,17.30
2023-05-22T21:31:09.566Z,17.40
2023-05-22T21:33:36.252Z,17.50
2023-05-22T21:36:02.948Z,17.60
2023-05-22T21:38:29.522Z,17.60
2023-05-22T21:40:56.171Z,16.90
2023-05-22T21:43:23.208Z,16.50
2023-05-22T21:45:50.189Z,16.20
2023-05-22T21:48:16.863Z,15.90
2023-05-22T21:50:47.129Z,15.70
2023-05-22T21:53:14.330Z,15.70
2023-05-22T21:55:41.036Z,15.60
2023-05-22T21:58:08.146Z,15.60
2023-05-22T22:03:28.184Z,15.50
2023-05-22T22:05:55.025Z,15.40
2023-05-22T22:08:21.585Z,15.40
2023-05-22T22:10:48.150Z,15.40
2023-05-22T22:13:17.427Z,15.40
2023-05-22T22:15:44.219Z,15.20
2023-05-22T22:18:14.885Z,15.00
2023-05-22T22:20:44.775Z,14.90
2023-05-22T22:23:12.193Z,14.80
2023-05-22T22:25:39.188Z,14.60
2023-05-22T22:28:19.196Z,14.60
2023-05-22T22:30:45.786Z,14.60
2023-05-22T22:33:12.942Z,14.60
2023-05-22T22:35:40.687Z,14.50
2023-05-22T22:38:07.516Z,14.60
2023-05-22T22:40:34.118Z,14.60
2023-05-22T22:43:00.695Z,14.70
2023-05-22T22:45:27.574Z,14.70
2023-05-22T22:47:57.219Z,14.80
2023-05-22T22:50:24.457Z,14.80
2023-05-22T22:52:51.131Z,14.80
2023-05-22T22:55:18.115Z,14.80
2023-05-22T22:57:47.036Z,14.80
2023-05-22T23:00:13.848Z,14.70
2023-05-22T23:02:40.586Z,14.70
2023-05-22T23:05:07.969Z,14.80
2023-05-22T23:07:34.700Z,14.80
2023-05-22T23:10:01.252Z,14.80
2023-05-22T23:12:27.931Z,14.80
2023-05-22T23:14:55.388Z,14.80
2023-05-22T23:17:21.948Z,14.80
2023-05-22T23:19:48.501Z,14.70
2023-05-22T23:22:15.055Z,14.70
2023-05-22T23:24:41.616Z,14.80
2023-05-22T23:27:08.275Z,14.90
2023-05-22T23:29:34.831Z,14.80
2023-05-22T23:32:01.653Z,14.90
2023-05-22T23:34:28.231Z,14.80
2023-05-22T23:36:54.778Z,14.80
2023-05-22T23:39:21.365Z,14.80
2023-05-22T23:41:47.934Z,14.70
2023-05-22T23:44:14.513Z,14.60
2023-05-22T23:46:41.304Z,14.70
2023-05-22T23:51:58.733Z,14.70
2023-05-22T23:54:25.428Z,14.70
2023-05-22T23:56:51.952Z,14.70
2023-05-22T23:59:18.518Z,14.80
